sensor_id;sensor_type;location;lat;lon;timestamp;pressure;altitude;pressure_sealevel;temperature;humidity
75699;BME280;64313;51.018;13.742;2024-03-23T00:52:45;98838.47;;;11.18;65.81
75699;BME280;64313;51.018;13.742;2024-03-23T00:55:11;98848.56;;;11.16;65.71
75699;BME280;64313;51.018;13.742;2024-03-23T00:57:36;98838.34;;;11.12;65.90
75699;BME280;64313;51.018;13.742;2024-03-23T01:00:02;98844.16;;;11.09;65.90
75699;BME280;64313;51.018;13.742;2024-03-23T01:02:27;98842.75;;;11.07;66.02
75699;BME280;64313;51.018;13.742;2024-03-23T01:04:53;98844.03;;;11.04;66.03
75699;BME280;64313;51.018;13.742;2024-03-23T01:07:18;98842.66;;;11.02;66.10
75699;BME280;64313;51.018;13.742;2024-03-23T01:09:44;98842.03;;;11.00;66.51
75699;BME280;64313;51.018;13.742;2024-03-23T01:12:10;98852.72;;;11.00;66.83
75699;BME280;64313;51.018;13.742;2024-03-23T01:14:35;98843.34;;;10.97;67.66
75699;BME280;64313;51.018;13.742;2024-03-23T01:17:01;98838.25;;;10.96;68.13
75699;BME280;64313;51.018;13.742;2024-03-23T01:19:26;98825.34;;;10.93;68.29
75699;BME280;64313;51.018;13.742;2024-03-23T01:21:52;98820.25;;;10.91;68.98
75699;BME280;64313;51.018;13.742;2024-03-23T01:24:17;98813.28;;;10.90;68.91
75699;BME280;64313;51.018;13.742;2024-03-23T01:26:42;98812.13;;;10.86;68.44
75699;BME280;64313;51.018;13.742;2024-03-23T01:29:08;98821.19;;;10.85;68.95
75699;BME280;64313;51.018;13.742;2024-03-23T01:31:33;98818.16;;;10.81;68.92
75699;BME280;64313;51.018;13.742;2024-03-23T01:33:58;98816.53;;;10.80;68.75
75699;BME280;64313;51.018;13.742;2024-03-23T01:36:24;98812.47;;;10.78;69.36
75699;BME280;64313;51.018;13.742;2024-03-23T01:38:49;98810.25;;;10.75;69.29
75699;BME280;64313;51.018;13.742;2024-03-23T01:41:15;98813.16;;;10.73;69.44
75699;BME280;64313;51.018;13.742;2024-03-23T01:43:40;98810.97;;;10.70;69.71
75699;BME280;64313;51.018;13.742;2024-03-23T01:46:06;98807.69;;;10.68;69.43
75699;BME280;64313;51.018;13.742;2024-03-23T01:48:32;98805.28;;;10.67;69.51
75699;BME280;64313;51.018;13.742;2024-03-23T01:50:58;98795.66;;;10.66;69.78
75699;BME280;64313;51.018;13.742;2024-03-23T01:53:24;98795.88;;;10.64;69.74
75699;BME280;64313;51.018;13.742;2024-03-23T01:55:50;98794.47;;;10.62;70.19
75699;BME280;64313;51.018;13.742;2024-03-23T01:58:16;98793.91;;;10.60;70.49
75699;BME280;64313;51.018;13.742;2024-03-23T02:00:41;98786.97;;;10.58;70.68
75699;BME280;64313;51.018;13.742;2024-03-23T02:03:26;98778.16;;;10.58;71.11
75699;BME280;64313;51.018;13.742;2024-03-23T02:05:53;98769.34;;;10.57;71.53
75699;BME280;64313;51.018;13.742;2024-03-23T02:08:20;98773.84;;;10.57;71.35
75699;BME280;64313;51.018;13.742;2024-03-23T02:10:45;98785.34;;;10.57;72.36
75699;BME280;64313;51.018;13.742;2024-03-23T02:13:13;98772.00;;;10.57;72.21
75699;BME280;64313;51.018;13.742;2024-03-23T02:15:39;98766.66;;;10.57;72.93
75699;BME280;64313;51.018;13.742;2024-03-23T02:18:04;98758.69;;;10.57;72.46
75699;BME280;64313;51.018;13.742;2024-03-23T02:20:30;98756.00;;;10.57;72.96
75699;BME280;64313;51.018;13.742;2024-03-23T02:22:55;98747.78;;;10.59;73.32
75699;BME280;64313;51.018;13.742;2024-03-23T02:25:20;98751.47;;;10.58;72.88
75699;BME280;64313;51.018;13.742;2024-03-23T02:27:46;98749.63;;;10.58;73.41
75699;BME280;64313;51.018;13.742;2024-03-23T02:30:11;98734.44;;;10.59;73.91
75699;BME280;64313;51.018;13.742;2024-03-23T02:32:36;98728.06;;;10.60;73.90
75699;BME280;64313;51.018;13.742;2024-03-23T02:35:02;98728.31;;;10.58;74.05
75699;BME280;64313;51.018;13.742;2024-03-23T02:37:27;98722.97;;;10.58;73.61
75699;BME280;64313;51.018;13.742;2024-03-23T02:39:53;98727.25;;;10.60;74.25
75699;BME280;64313;51.018;13.742;2024-03-23T02:42:18;98724.59;;;10.60;73.91
75699;BME280;64313;51.018;13.742;2024-03-23T02:44:44;98717.63;;;10.58;74.39
75699;BME280;64313;51.018;13.742;2024-03-23T02:47:11;98719.50;;;10.58;74.84
75699;BME280;64313;51.018;13.742;2024-03-23T02:49:38;98705.56;;;10.56;74.50
75699;BME280;64313;51.018;13.742;2024-03-23T02:52:03;98711.13;;;10.54;74.54
75699;BME280;64313;51.018;13.742;2024-03-23T02:54:28;98721.00;;;10.54;74.58
75699;BME280;64313;51.018;13.742;2024-03-23T02:56:54;98721.22;;;10.52;74.87
75699;BME280;64313;51.018;13.742;2024-03-23T02:59:19;98712.66;;;10.50;73.96
75699;BME280;64313;51.018;13.742;2024-03-23T03:01:44;98720.66;;;10.50;74.59
75699;BME280;64313;51.018;13.742;2024-03-23T03:04:10;98714.72;;;10.48;74.69
75699;BME280;64313;51.018;13.742;2024-03-23T03:06:35;98714.72;;;10.48;74.74
75699;BME280;64313;51.018;13.742;2024-03-23T03:09:00;98701.41;;;10.48;74.34
75699;BME280;64313;51.018;13.742;2024-03-23T03:11:26;98690.16;;;10.46;74.11
75699;BME280;64313;51.018;13.742;2024-03-23T03:13:51;98687.50;;;10.46;74.44
75699;BME280;64313;51.018;13.742;2024-03-23T03:16:17;98676.28;;;10.44;74.67
75699;BME280;64313;51.018;13.742;2024-03-23T03:18:42;98675.66;;;10.42;74.85
75699;BME280;64313;51.018;13.742;2024-03-23T03:21:07;98678.56;;;10.41;74.17
75699;BME280;64313;51.018;13.742;2024-03-23T03:23:39;98678.81;;;10.39;73.96
75699;BME280;64313;51.018;13.742;2024-03-23T03:26:05;98672.91;;;10.37;73.97
75699;BME280;64313;51.018;13.742;2024-03-23T03:28:34;98677.66;;;10.35;74.16
75699;BME280;64313;51.018;13.742;2024-03-23T03:31:00;98667.47;;;10.32;73.92
75699;BME280;64313;51.018;13.742;2024-03-23T03:33:26;98668.72;;;10.29;74.30
75699;BME280;64313;51.018;13.742;2024-03-23T03:35:52;98666.28;;;10.28;73.89
75699;BME280;64313;51.018;13.742;2024-03-23T03:38:18;98664.09;;;10.25;74.12
75699;BME280;64313;51.018;13.742;2024-03-23T03:40:44;98665.97;;;10.24;73.88
75699;BME280;64313;51.018;13.742;2024-03-23T03:43:09;98657.13;;;10.24;74.03
75699;BME280;64313;51.018;13.742;2024-03-23T03:45:34;98654.66;;;10.22;74.13
75699;BME280;64313;51.018;13.742;2024-03-23T03:47:59;98660.22;;;10.21;74.54
75699;BME280;64313;51.018;13.742;2024-03-23T03:50:26;98670.31;;;10.19;74.64
75699;BME280;64313;51.018;13.742;2024-03-23T03:52:51;98650.06;;;10.18;74.62
75699;BME280;64313;51.018;13.742;2024-03-23T03:55:17;98635.88;;;10.17;74.29
75699;BME280;64313;51.018;13.742;2024-03-23T03:57:42;98640.66;;;10.15;74.23
75699;BME280;64313;51.018;13.742;2024-03-23T04:00:08;98632.09;;;10.13;73.88
75699;BME280;64313;51.018;13.742;2024-03-23T04:02:39;98642.16;;;10.11;73.72
75699;BME280;64313;51.018;13.742;2024-03-23T04:05:05;98634.88;;;10.07;74.22
75699;BME280;64313;51.018;13.742;2024-03-23T04:07:31;98625.47;;;10.04;74.30
75699;BME280;64313;51.018;13.742;2024-03-23T04:09:56;98626.97;;;10.00;74.59
75699;BME280;64313;51.018;13.742;2024-03-23T04:12:21;98616.56;;;9.98;74.69
75699;BME280;64313;51.018;13.742;2024-03-23T04:14:47;98618.63;;;9.96;74.56
75699;BME280;64313;51.018;13.742;2024-03-23T04:17:12;98613.78;;;9.93;74.37
75699;BME280;64313;51.018;13.742;2024-03-23T04:19:37;98605.19;;;9.91;74.35
75699;BME280;64313;51.018;13.742;2024-03-23T04:22:03;98603.81;;;9.89;74.36
75699;BME280;64313;51.018;13.742;2024-03-23T04:24:29;98614.09;;;9.85;74.41
75699;BME280;64313;51.018;13.742;2024-03-23T04:26:54;98604.16;;;9.81;74.11
75699;BME280;64313;51.018;13.742;2024-03-23T04:29:20;98609.13;;;9.77;74.26
75699;BME280;64313;51.018;13.742;2024-03-23T04:31:45;98597.09;;;9.74;74.42
75699;BME280;64313;51.018;13.742;2024-03-23T04:34:11;98586.06;;;9.71;74.73
75699;BME280;64313;51.018;13.742;2024-03-23T04:36:36;98578.09;;;9.71;74.96
75699;BME280;64313;51.018;13.742;2024-03-23T04:39:02;98593.25;;;9.70;75.18
75699;BME280;64313;51.018;13.742;2024-03-23T04:41:27;98583.88;;;9.68;75.15
75699;BME280;64313;51.018;13.742;2024-03-23T04:43:53;98569.97;;;9.66;75.18
75699;BME280;64313;51.018;13.742;2024-03-23T04:46:18;98560.16;;;9.66;75.01
75699;BME280;64313;51.018;13.742;2024-03-23T04:48:43;98563.84;;;9.65;74.59
75699;BME280;64313;51.018;13.742;2024-03-23T04:51:20;98574.16;;;9.62;75.06
75699;BME280;64313;51.018;13.742;2024-03-23T04:53:46;98552.50;;;9.58;75.36
75699;BME280;64313;51.018;13.742;2024-03-23T04:56:13;98543.38;;;9.54;74.77
75699;BME280;64313;51.018;13.742;2024-03-23T04:58:38;98530.50;;;9.51;75.06
75699;BME280;64313;51.018;13.742;2024-03-23T05:01:04;98527.50;;;9.47;74.79
75699;BME280;64313;51.018;13.742;2024-03-23T05:03:29;98507.69;;;9.43;74.95
75699;BME280;64313;51.018;13.742;2024-03-23T05:05:54;98502.63;;;9.42;75.19
75699;BME280;64313;51.018;13.742;2024-03-23T05:08:19;98480.72;;;9.40;75.25
75699;BME280;64313;51.018;13.742;2024-03-23T05:10:45;98494.28;;;9.38;75.11
75699;BME280;64313;51.018;13.742;2024-03-23T05:13:11;98494.50;;;9.37;75.15
75699;BME280;64313;51.018;13.742;2024-03-23T05:15:37;98495.56;;;9.36;74.97
75699;BME280;64313;51.018;13.742;2024-03-23T05:18:03;98485.34;;;9.33;75.60
75699;BME280;64313;51.018;13.742;2024-03-23T05:20:28;98485.00;;;9.29;75.75
75699;BME280;64313;51.018;13.742;2024-03-23T05:22:57;98483.41;;;9.28;75.26
75699;BME280;64313;51.018;13.742;2024-03-23T05:25:22;98480.13;;;9.26;76.22
75699;BME280;64313;51.018;13.742;2024-03-23T05:27:48;98471.59;;;9.24;76.58
75699;BME280;64313;51.018;13.742;2024-03-23T05:30:14;98469.16;;;9.22;76.12
75699;BME280;64313;51.018;13.742;2024-03-23T05:32:39;98454.00;;;9.23;76.40
75699;BME280;64313;51.018;13.742;2024-03-23T05:35:06;98459.09;;;9.25;76.66
75699;BME280;64313;51.018;13.742;2024-03-23T05:37:32;98465.78;;;9.27;76.96
75699;BME280;64313;51.018;13.742;2024-03-23T05:39:59;98451.69;;;9.27;76.71
75699;BME280;64313;51.018;13.742;2024-03-23T05:42:24;98455.75;;;9.29;76.30
75699;BME280;64313;51.018;13.742;2024-03-23T05:44:50;98457.38;;;9.30;76.67
75699;BME280;64313;51.018;13.742;2024-03-23T05:47:15;98459.78;;;9.32;76.56
75699;BME280;64313;51.018;13.742;2024-03-23T05:49:42;98452.63;;;9.32;76.14
75699;BME280;64313;51.018;13.742;2024-03-23T05:52:08;98461.19;;;9.34;76.66
75699;BME280;64313;51.018;13.742;2024-03-23T05:54:34;98448.69;;;9.35;76.31
75699;BME280;64313;51.018;13.742;2024-03-23T05:56:59;98451.13;;;9.36;75.78
75699;BME280;64313;51.018;13.742;2024-03-23T05:59:25;98435.16;;;9.36;75.95
75699;BME280;64313;51.018;13.742;2024-03-23T06:01:50;98423.47;;;9.37;75.84
75699;BME280;64313;51.018;13.742;2024-03-23T06:04:15;98407.28;;;9.39;75.86
75699;BME280;64313;51.018;13.742;2024-03-23T06:06:41;98409.13;;;9.38;75.53
75699;BME280;64313;51.018;13.742;2024-03-23T06:09:06;98402.75;;;9.39;75.95
75699;BME280;64313;51.018;13.742;2024-03-23T06:11:33;98400.34;;;9.38;75.41
75699;BME280;64313;51.018;13.742;2024-03-23T06:13:58;98400.34;;;9.38;75.56
75699;BME280;64313;51.018;13.742;2024-03-23T06:16:23;98388.09;;;9.37;75.76
75699;BME280;64313;51.018;13.742;2024-03-23T06:18:50;98377.69;;;9.35;75.67
75699;BME280;64313;51.018;13.742;2024-03-23T06:21:16;98374.22;;;9.35;75.54
75699;BME280;64313;51.018;13.742;2024-03-23T06:23:42;98370.75;;;9.34;75.48
75699;BME280;64313;51.018;13.742;2024-03-23T06:26:07;98370.94;;;9.33;75.69
75699;BME280;64313;51.018;13.742;2024-03-23T06:28:33;98375.47;;;9.32;75.60
75699;BME280;64313;51.018;13.742;2024-03-23T06:30:58;98369.34;;;9.32;75.74
75699;BME280;64313;51.018;13.742;2024-03-23T06:33:24;98353.84;;;9.29;75.72
75699;BME280;64313;51.018;13.742;2024-03-23T06:35:50;98343.41;;;9.27;75.72
75699;BME280;64313;51.018;13.742;2024-03-23T06:38:17;98331.16;;;9.26;75.69
75699;BME280;64313;51.018;13.742;2024-03-23T06:41:18;98329.56;;;9.25;75.37
75699;BME280;64313;51.018;13.742;2024-03-23T06:43:44;98316.75;;;9.22;75.74
75699;BME280;64313;51.018;13.742;2024-03-23T06:46:09;98314.06;;;9.22;75.71
75699;BME280;64313;51.018;13.742;2024-03-23T06:48:34;98314.53;;;9.19;75.72
75699;BME280;64313;51.018;13.742;2024-03-23T06:51:00;98312.09;;;9.17;76.01
75699;BME280;64313;51.018;13.742;2024-03-23T06:53:25;98315.00;;;9.16;75.83
75699;BME280;64313;51.018;13.742;2024-03-23T06:55:52;98313.59;;;9.13;75.98
75699;BME280;64313;51.018;13.742;2024-03-23T06:58:22;98307.47;;;9.13;76.26
75699;BME280;64313;51.018;13.742;2024-03-23T07:00:48;98307.72;;;9.11;77.00
75699;BME280;64313;51.018;13.742;2024-03-23T07:03:14;98315.13;;;9.09;77.14
75699;BME280;64313;51.018;13.742;2024-03-23T07:05:40;98303.69;;;9.09;76.96
75699;BME280;64313;51.018;13.742;2024-03-23T07:08:06;98300.44;;;9.07;77.03
75699;BME280;64313;51.018;13.742;2024-03-23T07:10:31;98306.56;;;9.07;77.22
75699;BME280;64313;51.018;13.742;2024-03-23T07:12:56;98302.88;;;9.08;77.45
75699;BME280;64313;51.018;13.742;2024-03-23T07:15:22;98302.03;;;9.08;77.25
75699;BME280;64313;51.018;13.742;2024-03-23T07:17:47;98301.03;;;9.09;77.64
75699;BME280;64313;51.018;13.742;2024-03-23T07:20:13;98299.38;;;9.08;77.96
75699;BME280;64313;51.018;13.742;2024-03-23T07:22:38;98275.13;;;9.04;77.62
75699;BME280;64313;51.018;13.742;2024-03-23T07:25:05;98256.16;;;9.01;78.53
75699;BME280;64313;51.018;13.742;2024-03-23T07:27:31;98249.69;;;8.97;78.40
75699;BME280;64313;51.018;13.742;2024-03-23T07:29:56;98243.78;;;8.94;78.52
75699;BME280;64313;51.018;13.742;2024-03-23T07:32:21;98260.53;;;8.95;79.15
75699;BME280;64313;51.018;13.742;2024-03-23T07:34:47;98250.75;;;8.95;78.83
75699;BME280;64313;51.018;13.742;2024-03-23T07:37:12;98249.09;;;8.94;78.98
75699;BME280;64313;51.018;13.742;2024-03-23T07:39:39;98233.41;;;8.93;79.54
75699;BME280;64313;51.018;13.742;2024-03-23T07:42:05;98234.69;;;8.90;79.19
75699;BME280;64313;51.018;13.742;2024-03-23T07:44:30;98229.59;;;8.89;79.23
75699;BME280;64313;51.018;13.742;2024-03-23T07:46:56;98215.25;;;8.90;79.00
75699;BME280;64313;51.018;13.742;2024-03-23T07:49:21;98220.78;;;8.88;79.75
75699;BME280;64313;51.018;13.742;2024-03-23T07:51:47;98221.38;;;8.90;79.29
75699;BME280;64313;51.018;13.742;2024-03-23T07:54:12;98209.47;;;8.93;79.43
75699;BME280;64313;51.018;13.742;2024-03-23T07:56:38;98205.56;;;8.95;79.38
75699;BME280;64313;51.018;13.742;2024-03-23T07:59:03;98196.03;;;9.00;79.20
75699;BME280;64313;51.018;13.742;2024-03-23T08:01:28;98185.16;;;9.01;79.30
75699;BME280;64313;51.018;13.742;2024-03-23T08:03:54;98178.34;;;9.05;79.04
75699;BME280;64313;51.018;13.742;2024-03-23T08:06:20;98171.75;;;9.08;78.79
75699;BME280;64313;51.018;13.742;2024-03-23T08:08:48;98170.47;;;9.10;80.13
75699;BME280;64313;51.018;13.742;2024-03-23T08:11:15;98176.34;;;9.12;79.91
75699;BME280;64313;51.018;13.742;2024-03-23T08:13:41;98153.22;;;9.13;78.57
75699;BME280;64313;51.018;13.742;2024-03-23T08:16:07;98144.00;;;9.15;79.44
75699;BME280;64313;51.018;13.742;2024-03-23T08:18:34;98154.94;;;9.19;79.42
75699;BME280;64313;51.018;13.742;2024-03-23T08:21:06;98132.41;;;9.21;78.98
75699;BME280;64313;51.018;13.742;2024-03-23T08:23:33;98138.03;;;9.25;79.31
75699;BME280;64313;51.018;13.742;2024-03-23T08:26:00;98135.13;;;9.27;79.16
75699;BME280;64313;51.018;13.742;2024-03-23T08:28:26;98136.84;;;9.33;79.81
75699;BME280;64313;51.018;13.742;2024-03-23T08:30:53;98121.53;;;9.40;80.49
75699;BME280;64313;51.018;13.742;2024-03-23T08:33:18;98121.63;;;9.45;80.46
75699;BME280;64313;51.018;13.742;2024-03-23T08:35:53;98116.16;;;9.52;80.34
75699;BME280;64313;51.018;13.742;2024-03-23T08:38:20;98115.22;;;9.58;80.46
75699;BME280;64313;51.018;13.742;2024-03-23T08:40:45;98116.91;;;9.64;80.17
75699;BME280;64313;51.018;13.742;2024-03-23T08:43:10;98122.88;;;9.71;80.07
75699;BME280;64313;51.018;13.742;2024-03-23T08:45:36;98124.03;;;9.75;79.79
75699;BME280;64313;51.018;13.742;2024-03-23T08:48:01;98124.34;;;9.78;79.02
75699;BME280;64313;51.018;13.742;2024-03-23T08:50:27;98124.91;;;9.81;79.14
75699;BME280;64313;51.018;13.742;2024-03-23T08:52:53;98122.56;;;9.84;79.45
75699;BME280;64313;51.018;13.742;2024-03-23T08:55:18;98119.69;;;9.86;79.41
75699;BME280;64313;51.018;13.742;2024-03-23T08:57:43;98122.91;;;9.88;78.88
75699;BME280;64313;51.018;13.742;2024-03-23T09:00:09;98123.47;;;9.90;79.22
75699;BME280;64313;51.018;13.742;2024-03-23T09:02:36;98115.22;;;9.91;78.70
75699;BME280;64313;51.018;13.742;2024-03-23T09:05:02;98112.34;;;9.93;78.87
75699;BME280;64313;51.018;13.742;2024-03-23T09:07:30;98110.47;;;9.93;79.38
75699;BME280;64313;51.018;13.742;2024-03-23T09:09:56;98105.72;;;9.95;79.35
75699;BME280;64313;51.018;13.742;2024-03-23T09:12:21;98100.72;;;9.99;79.88
75699;BME280;64313;51.018;13.742;2024-03-23T09:14:46;98109.81;;;10.03;80.83
75699;BME280;64313;51.018;13.742;2024-03-23T09:17:12;98113.63;;;10.07;80.60
75699;BME280;64313;51.018;13.742;2024-03-23T09:19:38;98113.69;;;10.12;79.57
75699;BME280;64313;51.018;13.742;2024-03-23T09:22:04;98123.59;;;10.17;79.92
75699;BME280;64313;51.018;13.742;2024-03-23T09:24:30;98119.78;;;10.24;79.57
75699;BME280;64313;51.018;13.742;2024-03-23T09:26:57;98120.16;;;10.33;77.27
75699;BME280;64313;51.018;13.742;2024-03-23T09:29:22;98127.53;;;10.48;75.06
75699;BME280;64313;51.018;13.742;2024-03-23T09:31:47;98120.56;;;10.64;73.63
75699;BME280;64313;51.018;13.742;2024-03-23T09:34:13;98116.97;;;10.75;73.12
75699;BME280;64313;51.018;13.742;2024-03-23T09:36:38;98132.56;;;10.83;72.70
75699;BME280;64313;51.018;13.742;2024-03-23T09:39:04;98129.44;;;10.91;72.21
75699;BME280;64313;51.018;13.742;2024-03-23T09:41:30;98144.47;;;10.97;71.13
75699;BME280;64313;51.018;13.742;2024-03-23T09:43:56;98173.28;;;11.00;71.78
75699;BME280;64313;51.018;13.742;2024-03-23T09:46:21;98190.41;;;11.04;73.74
75699;BME280;64313;51.018;13.742;2024-03-23T09:48:47;98195.44;;;11.01;74.51
75699;BME280;64313;51.018;13.742;2024-03-23T09:51:12;98197.72;;;10.92;75.77
75699;BME280;64313;51.018;13.742;2024-03-23T09:53:37;98198.97;;;10.84;76.21
75699;BME280;64313;51.018;13.742;2024-03-23T09:56:04;98217.25;;;10.76;76.89
75699;BME280;64313;51.018;13.742;2024-03-23T09:58:29;98242.16;;;10.65;76.79
75699;BME280;64313;51.018;13.742;2024-03-23T10:00:54;98269.94;;;10.52;75.71
75699;BME280;64313;51.018;13.742;2024-03-23T10:03:19;98279.13;;;10.27;74.23
75699;BME280;64313;51.018;13.742;2024-03-23T10:05:45;98290.31;;;10.13;74.05
75699;BME280;64313;51.018;13.742;2024-03-23T10:10:38;98326.00;;;9.71;73.56
75699;BME280;64313;51.018;13.742;2024-03-23T10:13:04;98344.09;;;9.58;74.33
75699;BME280;64313;51.018;13.742;2024-03-23T10:15:29;98356.16;;;9.37;72.30
75699;BME280;64313;51.018;13.742;2024-03-23T10:17:54;98383.69;;;9.19;71.73
75699;BME280;64313;51.018;13.742;2024-03-23T10:20:23;98404.25;;;9.00;71.72
75699;BME280;64313;51.018;13.742;2024-03-23T10:22:51;98411.38;;;8.76;69.73
75699;BME280;64313;51.018;13.742;2024-03-23T10:25:17;98441.59;;;8.52;69.39
75699;BME280;64313;51.018;13.742;2024-03-23T10:27:43;98458.78;;;8.31;68.84
75699;BME280;64313;51.018;13.742;2024-03-23T10:30:13;98471.63;;;8.15;69.13
75699;BME280;64313;51.018;13.742;2024-03-23T10:32:41;98489.41;;;7.97;69.54
75699;BME280;64313;51.018;13.742;2024-03-23T10:35:20;98491.53;;;7.88;69.96
75699;BME280;64313;51.018;13.742;2024-03-23T10:37:48;98528.59;;;7.76;70.97
75699;BME280;64313;51.018;13.742;2024-03-23T10:40:17;98541.72;;;7.71;70.91
75699;BME280;64313;51.018;13.742;2024-03-23T10:42:44;98562.25;;;7.57;71.87
75699;BME280;64313;51.018;13.742;2024-03-23T10:45:09;98577.63;;;7.49;71.23
75699;BME280;64313;51.018;13.742;2024-03-23T10:47:36;98570.34;;;7.38;71.74
75699;BME280;64313;51.018;13.742;2024-03-23T10:50:03;98598.31;;;7.33;73.12
75699;BME280;64313;51.018;13.742;2024-03-23T10:52:30;98619.38;;;7.28;72.77
75699;BME280;64313;51.018;13.742;2024-03-23T10:54:56;98628.78;;;7.24;71.50
75699;BME280;64313;51.018;13.742;2024-03-23T10:57:31;98653.50;;;7.18;72.67
75699;BME280;64313;51.018;13.742;2024-03-23T10:59:59;98644.75;;;7.11;73.10
75699;BME280;64313;51.018;13.742;2024-03-23T11:02:26;98648.25;;;7.05;73.41
75699;BME280;64313;51.018;13.742;2024-03-23T11:04:53;98655.41;;;7.04;74.13
75699;BME280;64313;51.018;13.742;2024-03-23T11:07:31;98668.25;;;7.01;74.98
75699;BME280;64313;51.018;13.742;2024-03-23T11:09:58;98663.97;;;7.00;74.49
75699;BME280;64313;51.018;13.742;2024-03-23T11:14:52;98671.69;;;7.01;75.09
75699;BME280;64313;51.018;13.742;2024-03-23T11:17:22;98656.66;;;7.02;74.50
75699;BME280;64313;51.018;13.742;2024-03-23T11:19:55;98654.59;;;7.04;75.15
75699;BME280;64313;51.018;13.742;2024-03-23T11:22:41;98657.81;;;7.06;74.40
75699;BME280;64313;51.018;13.742;2024-03-23T11:25:14;98660.06;;;7.09;75.60
75699;BME280;64313;51.018;13.742;2024-03-23T11:27:40;98655.78;;;7.08;76.06
75699;BME280;64313;51.018;13.742;2024-03-23T11:32:45;98672.09;;;7.12;75.57
75699;BME280;64313;51.018;13.742;2024-03-23T11:35:39;98691.22;;;7.14;74.68
75699;BME280;64313;51.018;13.742;2024-03-23T11:38:15;98696.53;;;7.14;73.76
75699;BME280;64313;51.018;13.742;2024-03-23T11:40:48;98717.16;;;7.12;73.66
75699;BME280;64313;51.018;13.742;2024-03-23T11:43:18;98714.72;;;7.10;73.64
75699;BME280;64313;51.018;13.742;2024-03-23T11:45:52;98715.75;;;7.09;73.77
75699;BME280;64313;51.018;13.742;2024-03-23T11:48:19;98722.88;;;7.09;75.37
75699;BME280;64313;51.018;13.742;2024-03-23T11:50:47;98725.53;;;7.09;73.99
75699;BME280;64313;51.018;13.742;2024-03-23T11:53:23;98725.53;;;7.09;73.93
75699;BME280;64313;51.018;13.742;2024-03-23T11:55:52;98728.19;;;7.09;74.95
75699;BME280;64313;51.018;13.742;2024-03-23T11:58:20;98728.38;;;7.07;75.68
75699;BME280;64313;51.018;13.742;2024-03-23T12:00:58;98727.16;;;7.10;75.29
75699;BME280;64313;51.018;13.742;2024-03-23T12:03:25;98721.22;;;7.07;74.86
75699;BME280;64313;51.018;13.742;2024-03-23T12:05:55;98722.88;;;7.09;74.98
75699;BME280;64313;51.018;13.742;2024-03-23T12:08:25;98713.91;;;7.10;74.53
75699;BME280;64313;51.018;13.742;2024-03-23T12:11:05;98721.88;;;7.10;73.54
75699;BME280;64313;51.018;13.742;2024-03-23T12:13:30;98722.66;;;7.10;74.95
75699;BME280;64313;51.018;13.742;2024-03-23T12:16:09;98717.75;;;7.14;76.04
75699;BME280;64313;51.018;13.742;2024-03-23T12:18:34;98713.88;;;7.16;74.47
75699;BME280;64313;51.018;13.742;2024-03-23T12:21:00;98721.41;;;7.19;74.97
75699;BME280;64313;51.018;13.742;2024-03-23T12:23:25;98715.06;;;7.20;73.77
75699;BME280;64313;51.018;13.742;2024-03-23T12:25:50;98727.94;;;7.23;73.46
75699;BME280;64313;51.018;13.742;2024-03-23T12:28:16;98731.38;;;7.24;73.03
75699;BME280;64313;51.018;13.742;2024-03-23T12:30:42;98728.53;;;7.25;72.50
75699;BME280;64313;51.018;13.742;2024-03-23T12:33:07;98724.44;;;7.29;72.92
75699;BME280;64313;51.018;13.742;2024-03-23T12:35:33;98730.94;;;7.33;74.37
75699;BME280;64313;51.018;13.742;2024-03-23T12:37:59;98713.38;;;7.32;72.33
75699;BME280;64313;51.018;13.742;2024-03-23T12:40:24;98701.97;;;7.32;70.99
75699;BME280;64313;51.018;13.742;2024-03-23T12:42:49;98701.75;;;7.33;69.91
75699;BME280;64313;51.018;13.742;2024-03-23T12:45:15;98706.88;;;7.35;71.86
75699;BME280;64313;51.018;13.742;2024-03-23T12:47:40;98716.22;;;7.38;71.51
75699;BME280;64313;51.018;13.742;2024-03-23T12:50:06;98736.41;;;7.39;70.60
75699;BME280;64313;51.018;13.742;2024-03-23T12:52:32;98750.91;;;7.43;71.28
75699;BME280;64313;51.018;13.742;2024-03-23T12:54:58;98741.09;;;7.43;71.02
75699;BME280;64313;51.018;13.742;2024-03-23T12:57:26;98753.78;;;7.41;69.85
75699;BME280;64313;51.018;13.742;2024-03-23T12:59:52;98768.25;;;7.39;69.94
75699;BME280;64313;51.018;13.742;2024-03-23T13:02:21;98778.66;;;7.33;70.06
75699;BME280;64313;51.018;13.742;2024-03-23T13:04:49;98759.50;;;7.31;69.84
75699;BME280;64313;51.018;13.742;2024-03-23T13:07:15;98754.41;;;7.30;70.19
75699;BME280;64313;51.018;13.742;2024-03-23T13:09:40;98736.47;;;7.25;68.83
75699;BME280;64313;51.018;13.742;2024-03-23T13:12:06;98736.47;;;7.25;69.50
75699;BME280;64313;51.018;13.742;2024-03-23T13:14:31;98740.59;;;7.21;68.82
75699;BME280;64313;51.018;13.742;2024-03-23T13:20:17;98777.09;;;7.13;68.03
75699;BME280;64313;51.018;13.742;2024-03-23T13:22:42;98794.84;;;7.12;67.72
75699;BME280;64313;51.018;13.742;2024-03-23T13:25:08;98794.47;;;7.09;67.63
75699;BME280;64313;51.018;13.742;2024-03-23T13:27:33;98813.41;;;7.05;67.71
75699;BME280;64313;51.018;13.742;2024-03-23T13:29:58;98833.00;;;7.04;67.48
75699;BME280;64313;51.018;13.742;2024-03-23T13:32:23;98829.53;;;7.04;68.57
75699;BME280;64313;51.018;13.742;2024-03-23T13:34:49;98816.88;;;7.06;68.11
75699;BME280;64313;51.018;13.742;2024-03-23T13:37:15;98835.44;;;7.06;68.34
75699;BME280;64313;51.018;13.742;2024-03-23T13:39:41;98839.94;;;7.05;68.41
75699;BME280;64313;51.018;13.742;2024-03-23T13:42:07;98825.66;;;7.06;67.50
75699;BME280;64313;51.018;13.742;2024-03-23T13:44:34;98815.03;;;7.06;68.12
75699;BME280;64313;51.018;13.742;2024-03-23T13:46:59;98804.22;;;7.08;68.16
75699;BME280;64313;51.018;13.742;2024-03-23T13:49:27;98797.50;;;7.12;67.34
75699;BME280;64313;51.018;13.742;2024-03-23T13:51:53;98780.75;;;7.18;66.73
75699;BME280;64313;51.018;13.742;2024-03-23T13:54:19;98778.50;;;7.28;67.27
75699;BME280;64313;51.018;13.742;2024-03-23T13:56:45;98776.81;;;7.41;68.06